sensor_id;sensor_type;location;lat;lon;timestamp;temperature;humidity
35563;DHT22;21665;40.108;18.302;2024-01-15T00:00:23;8.60;99.90
35563;DHT22;21665;40.108;18.302;2024-01-15T00:02:49;8.60;99.90
35563;DHT22;21665;40.108;18.302;2024-01-15T00:05:16;8.60;99.90
35563;DHT22;21665;40.108;18.302;2024-01-15T00:07:45;8.60;99.90
35563;DHT22;21665;40.108;18.302;2024-01-15T00:10:11;8.60;99.90
35563;DHT22;21665;40.108;18.302;2024-01-15T00:12:38;8.70;99.90
35563;DHT22;21665;40.108;18.302;2024-01-15T00:15:05;8.80;99.90
35563;DHT22;21665;40.108;18.302;2024-01-15T00:17:31;8.90;99.90
35563;DHT22;21665;40.108;18.302;2024-01-15T00:19:58;9.00;99.90
35563;DHT22;21665;40.108;18.302;2024-01-15T00:22:26;9.10;99.90
35563;DHT22;21665;40.108;18.302;2024-01-15T00:24:53;9.20;99.90
35563;DHT22;21665;40.108;18.302;2024-01-15T00:27:19;9.30;99.90
35563;DHT22;21665;40.108;18.302;2024-01-15T00:29:46;9.30;99.90
35563;DHT22;21665;40.108;18.302;2024-01-15T00:32:16;9.30;99.90
35563;DHT22;21665;40.108;18.302;2024-01-15T00:34:42;9.30;99.90
35563;DHT22;21665;40.108;18.302;2024-01-15T00:37:08;9.20;99.90
35563;DHT22;21665;40.108;18.302;2024-01-15T00:39:35;9.30;99.90
35563;DHT22;21665;40.108;18.302;2024-01-15T00:42:02;9.30;99.90
35563;DHT22;21665;40.108;18.302;2024-01-15T00:44:28;9.30;99.90
35563;DHT22;21665;40.108;18.302;2024-01-15T00:46:55;9.40;99.90
35563;DHT22;21665;40.108;18.302;2024-01-15T00:49:21;9.50;99.90
35563;DHT22;21665;40.108;18.302;2024-01-15T00:51:48;9.50;99.90
35563;DHT22;21665;40.108;18.302;2024-01-15T00:54:14;9.60;99.90
35563;DHT22;21665;40.108;18.302;2024-01-15T00:56:40;9.60;99.90
35563;DHT22;21665;40.108;18.302;2024-01-15T00:59:07;9.60;99.90
35563;DHT22;21665;40.108;18.302;2024-01-15T01:01:36;9.70;99.90
35563;DHT22;21665;40.108;18.302;2024-01-15T01:04:04;9.70;99.90
35563;DHT22;21665;40.108;18.302;2024-01-15T01:06:30;9.80;99.90
35563;DHT22;21665;40.108;18.302;2024-01-15T01:08:56;9.80;99.90
35563;DHT22;21665;40.108;18.302;2024-01-15T01:11:23;9.90;99.90
35563;DHT22;21665;40.108;18.302;2024-01-15T01:13:49;9.90;99.90
35563;DHT22;21665;40.108;18.302;2024-01-15T01:16:15;9.90;99.90
35563;DHT22;21665;40.108;18.302;2024-01-15T01:18:42;9.90;99.90
35563;DHT22;21665;40.108;18.302;2024-01-15T01:21:08;9.90;99.90
35563;DHT22;21665;40.108;18.302;2024-01-15T01:23:35;9.90;99.90
35563;DHT22;21665;40.108;18.302;2024-01-15T01:26:01;9.90;99.90
35563;DHT22;21665;40.108;18.302;2024-01-15T01:28:28;10.00;99.90
35563;DHT22;21665;40.108;18.302;2024-01-15T01:30:54;10.00;99.90
35563;DHT22;21665;40.108;18.302;2024-01-15T01:33:21;10.00;99.90
35563;DHT22;21665;40.108;18.302;2024-01-15T01:35:47;10.00;99.90
35563;DHT22;21665;40.108;18.302;2024-01-15T01:38:14;10.00;99.90
35563;DHT22;21665;40.108;18.302;2024-01-15T01:40:41;10.00;99.90
35563;DHT22;21665;40.108;18.302;2024-01-15T01:43:09;10.00;99.90
35563;DHT22;21665;40.108;18.302;2024-01-15T01:45:36;10.00;99.90
35563;DHT22;21665;40.108;18.302;2024-01-15T01:48:04;9.90;99.90
35563;DHT22;21665;40.108;18.302;2024-01-15T01:50:31;10.00;99.90
35563;DHT22;21665;40.108;18.302;2024-01-15T01:52:58;9.90;99.90
35563;DHT22;21665;40.108;18.302;2024-01-15T01:55:30;10.00;99.90
35563;DHT22;21665;40.108;18.302;2024-01-15T01:58:00;9.90;99.90
35563;DHT22;21665;40.108;18.302;2024-01-15T02:00:30;9.90;99.90
35563;DHT22;21665;40.108;18.302;2024-01-15T02:02:58;9.90;99.90
35563;DHT22;21665;40.108;18.302;2024-01-15T02:05:24;9.90;99.90
35563;DHT22;21665;40.108;18.302;2024-01-15T02:07:52;9.90;99.90
35563;DHT22;21665;40.108;18.302;2024-01-15T02:10:18;9.90;99.90
35563;DHT22;21665;40.108;18.302;2024-01-15T02:12:45;9.90;99.90
35563;DHT22;21665;40.108;18.302;2024-01-15T02:15:14;9.90;99.90
35563;DHT22;21665;40.108;18.302;2024-01-15T02:18:01;9.90;99.90
35563;DHT22;21665;40.108;18.302;2024-01-15T02:20:28;9.90;99.90
35563;DHT22;21665;40.108;18.302;2024-01-15T02:23:00;9.90;99.90
35563;DHT22;21665;40.108;18.302;2024-01-15T02:25:27;9.90;99.90
35563;DHT22;21665;40.108;18.302;2024-01-15T02:27:54;9.90;99.90
35563;DHT22;21665;40.108;18.302;2024-01-15T02:30:21;9.90;99.90
35563;DHT22;21665;40.108;18.302;2024-01-15T02:32:49;9.90;99.90
35563;DHT22;21665;40.108;18.302;2024-01-15T02:35:15;9.90;99.90
35563;DHT22;21665;40.108;18.302;2024-01-15T02:37:42;10.00;99.90
35563;DHT22;21665;40.108;18.302;2024-01-15T02:40:09;10.00;99.90
35563;DHT22;21665;40.108;18.302;2024-01-15T02:42:35;10.10;99.90
35563;DHT22;21665;40.108;18.302;2024-01-15T02:45:02;10.20;99.90
35563;DHT22;21665;40.108;18.302;2024-01-15T02:47:29;10.20;99.90
35563;DHT22;21665;40.108;18.302;2024-01-15T02:49:55;10.20;99.90
35563;DHT22;21665;40.108;18.302;2024-01-15T02:52:22;10.30;99.90
35563;DHT22;21665;40.108;18.302;2024-01-15T02:54:48;10.30;99.90
35563;DHT22;21665;40.108;18.302;2024-01-15T02:57:15;10.30;99.90
35563;DHT22;21665;40.108;18.302;2024-01-15T02:59:41;10.30;99.90
35563;DHT22;21665;40.108;18.302;2024-01-15T03:02:08;10.30;99.90
35563;DHT22;21665;40.108;18.302;2024-01-15T03:04:36;10.20;99.90
35563;DHT22;21665;40.108;18.302;2024-01-15T03:07:03;10.20;99.90
35563;DHT22;21665;40.108;18.302;2024-01-15T03:09:29;10.20;99.90
35563;DHT22;21665;40.108;18.302;2024-01-15T03:11:55;10.20;99.90
35563;DHT22;21665;40.108;18.302;2024-01-15T03:14:22;10.10;99.90
35563;DHT22;21665;40.108;18.302;2024-01-15T03:16:51;10.10;99.90
35563;DHT22;21665;40.108;18.302;2024-01-15T03:19:18;10.10;99.90
35563;DHT22;21665;40.108;18.302;2024-01-15T03:21:44;10.10;99.90
35563;DHT22;21665;40.108;18.302;2024-01-15T03:24:11;10.00;99.90
35563;DHT22;21665;40.108;18.302;2024-01-15T03:26:38;10.00;99.90
35563;DHT22;21665;40.108;18.302;2024-01-15T03:29:04;10.00;99.90
35563;DHT22;21665;40.108;18.302;2024-01-15T03:31:30;10.00;99.90
35563;DHT22;21665;40.108;18.302;2024-01-15T03:33:56;9.90;99.90
35563;DHT22;21665;40.108;18.302;2024-01-15T03:36:23;9.90;99.90
35563;DHT22;21665;40.108;18.302;2024-01-15T03:38:49;9.90;99.90
35563;DHT22;21665;40.108;18.302;2024-01-15T03:41:16;9.90;99.90
35563;DHT22;21665;40.108;18.302;2024-01-15T03:43:42;9.90;99.90
35563;DHT22;21665;40.108;18.302;2024-01-15T03:46:11;9.90;99.90
35563;DHT22;21665;40.108;18.302;2024-01-15T03:48:38;9.90;99.90
35563;DHT22;21665;40.108;18.302;2024-01-15T03:51:05;9.90;99.90
35563;DHT22;21665;40.108;18.302;2024-01-15T03:53:34;9.90;99.90
35563;DHT22;21665;40.108;18.302;2024-01-15T03:56:01;10.00;99.90
35563;DHT22;21665;40.108;18.302;2024-01-15T03:58:27;10.00;99.90
35563;DHT22;21665;40.108;18.302;2024-01-15T04:00:53;10.00;99.90
35563;DHT22;21665;40.108;18.302;2024-01-15T04:03:20;10.00;99.90
35563;DHT22;21665;40.108;18.302;2024-01-15T04:05:46;10.10;99.90
35563;DHT22;21665;40.108;18.302;2024-01-15T04:08:13;10.20;99.90
35563;DHT22;21665;40.108;18.302;2024-01-15T04:10:39;10.20;99.90
35563;DHT22;21665;40.108;18.302;2024-01-15T04:13:06;10.30;99.90
35563;DHT22;21665;40.108;18.302;2024-01-15T04:15:32;10.40;99.90
35563;DHT22;21665;40.108;18.302;2024-01-15T04:17:59;10.40;99.90
35563;DHT22;21665;40.108;18.302;2024-01-15T04:20:27;10.50;99.90
35563;DHT22;21665;40.108;18.302;2024-01-15T04:22:53;10.50;99.90
35563;DHT22;21665;40.108;18.302;2024-01-15T04:25:20;10.50;99.90
35563;DHT22;21665;40.108;18.302;2024-01-15T04:27:48;10.50;99.90
35563;DHT22;21665;40.108;18.302;2024-01-15T04:30:14;10.50;99.90
35563;DHT22;21665;40.108;18.302;2024-01-15T04:32:41;10.50;99.90
35563;DHT22;21665;40.108;18.302;2024-01-15T04:35:10;10.50;99.90
35563;DHT22;21665;40.108;18.302;2024-01-15T04:37:37;10.40;99.90
35563;DHT22;21665;40.108;18.302;2024-01-15T04:40:03;10.50;99.90
35563;DHT22;21665;40.108;18.302;2024-01-15T04:42:30;10.40;99.90
35563;DHT22;21665;40.108;18.302;2024-01-15T04:44:56;10.40;99.90
35563;DHT22;21665;40.108;18.302;2024-01-15T04:47:23;10.40;99.90
35563;DHT22;21665;40.108;18.302;2024-01-15T04:49:49;10.40;99.90
35563;DHT22;21665;40.108;18.302;2024-01-15T04:52:15;10.50;99.90
35563;DHT22;21665;40.108;18.302;2024-01-15T04:54:45;10.50;99.90
35563;DHT22;21665;40.108;18.302;2024-01-15T04:57:14;10.50;99.90
35563;DHT22;21665;40.108;18.302;2024-01-15T04:59:41;10.60;99.90
35563;DHT22;21665;40.108;18.302;2024-01-15T05:02:07;10.60;99.90
35563;DHT22;21665;40.108;18.302;2024-01-15T05:04:34;10.70;99.90
35563;DHT22;21665;40.108;18.302;2024-01-15T05:07:00;10.70;99.90
35563;DHT22;21665;40.108;18.302;2024-01-15T05:09:27;10.70;99.90
35563;DHT22;21665;40.108;18.302;2024-01-15T05:11:53;10.70;99.90
35563;DHT22;21665;40.108;18.302;2024-01-15T05:14:20;10.70;99.90
35563;DHT22;21665;40.108;18.302;2024-01-15T05:16:49;10.70;99.90
35563;DHT22;21665;40.108;18.302;2024-01-15T05:19:16;10.70;99.90
35563;DHT22;21665;40.108;18.302;2024-01-15T05:21:42;10.70;99.90
35563;DHT22;21665;40.108;18.302;2024-01-15T05:24:09;10.70;99.90
35563;DHT22;21665;40.108;18.302;2024-01-15T05:26:38;10.70;99.90
35563;DHT22;21665;40.108;18.302;2024-01-15T05:29:05;10.80;99.90
35563;DHT22;21665;40.108;18.302;2024-01-15T05:31:31;10.80;99.90
35563;DHT22;21665;40.108;18.302;2024-01-15T05:33:57;10.80;99.90
35563;DHT22;21665;40.108;18.302;2024-01-15T05:36:24;10.90;99.90
35563;DHT22;21665;40.108;18.302;2024-01-15T05:38:50;10.90;99.90
35563;DHT22;21665;40.108;18.302;2024-01-15T05:41:16;11.00;99.90
35563;DHT22;21665;40.108;18.302;2024-01-15T05:43:43;10.90;99.90
35563;DHT22;21665;40.108;18.302;2024-01-15T05:46:09;10.90;99.90
35563;DHT22;21665;40.108;18.302;2024-01-15T05:48:36;10.90;99.90
35563;DHT22;21665;40.108;18.302;2024-01-15T05:51:02;10.90;99.90
35563;DHT22;21665;40.108;18.302;2024-01-15T05:53:28;10.90;99.90
35563;DHT22;21665;40.108;18.302;2024-01-15T05:55:55;10.90;99.90
35563;DHT22;21665;40.108;18.302;2024-01-15T05:58:22;10.90;99.90
35563;DHT22;21665;40.108;18.302;2024-01-15T06:00:48;11.00;99.90
35563;DHT22;21665;40.108;18.302;2024-01-15T06:03:16;10.90;99.90
35563;DHT22;21665;40.108;18.302;2024-01-15T06:05:43;11.00;99.90
35563;DHT22;21665;40.108;18.302;2024-01-15T06:08:10;11.00;99.90
35563;DHT22;21665;40.108;18.302;2024-01-15T06:10:36;10.90;99.90
35563;DHT22;21665;40.108;18.302;2024-01-15T06:13:02;10.90;99.90
35563;DHT22;21665;40.108;18.302;2024-01-15T06:15:29;10.90;99.90
35563;DHT22;21665;40.108;18.302;2024-01-15T06:17:56;10.90;99.90
35563;DHT22;21665;40.108;18.302;2024-01-15T06:20:22;10.90;99.90
35563;DHT22;21665;40.108;18.302;2024-01-15T06:22:48;10.90;99.90
35563;DHT22;21665;40.108;18.302;2024-01-15T06:25:14;11.00;99.90
35563;DHT22;21665;40.108;18.302;2024-01-15T06:27:45;11.00;99.90
35563;DHT22;21665;40.108;18.302;2024-01-15T06:30:12;11.00;99.90
35563;DHT22;21665;40.108;18.302;2024-01-15T06:32:39;11.00;99.90
35563;DHT22;21665;40.108;18.302;2024-01-15T06:35:05;11.00;99.90
35563;DHT22;21665;40.108;18.302;2024-01-15T06:37:32;11.00;99.90
35563;DHT22;21665;40.108;18.302;2024-01-15T06:40:01;11.00;99.90
35563;DHT22;21665;40.108;18.302;2024-01-15T06:42:27;11.10;99.90
35563;DHT22;21665;40.108;18.302;2024-01-15T06:44:54;11.10;99.90
35563;DHT22;21665;40.108;18.302;2024-01-15T06:47:20;11.10;99.90
35563;DHT22;21665;40.108;18.302;2024-01-15T06:49:47;11.10;99.90
35563;DHT22;21665;40.108;18.302;2024-01-15T06:52:13;11.20;99.90
35563;DHT22;21665;40.108;18.302;2024-01-15T06:54:40;11.20;99.90
35563;DHT22;21665;40.108;18.302;2024-01-15T06:57:06;11.20;99.90
35563;DHT22;21665;40.108;18.302;2024-01-15T06:59:34;11.30;99.90
35563;DHT22;21665;40.108;18.302;2024-01-15T07:02:05;11.30;99.90
35563;DHT22;21665;40.108;18.302;2024-01-15T07:04:31;11.30;99.90
35563;DHT22;21665;40.108;18.302;2024-01-15T07:06:58;11.30;99.90
35563;DHT22;21665;40.108;18.302;2024-01-15T07:09:24;11.40;99.90
35563;DHT22;21665;40.108;18.302;2024-01-15T07:11:51;11.40;99.90
35563;DHT22;21665;40.108;18.302;2024-01-15T07:14:17;11.50;99.90
35563;DHT22;21665;40.108;18.302;2024-01-15T07:16:44;11.50;99.90
35563;DHT22;21665;40.108;18.302;2024-01-15T07:19:11;11.50;99.90
35563;DHT22;21665;40.108;18.302;2024-01-15T07:21:40;11.60;99.90
35563;DHT22;21665;40.108;18.302;2024-01-15T07:24:06;11.60;99.90
35563;DHT22;21665;40.108;18.302;2024-01-15T07:26:33;11.70;99.90
35563;DHT22;21665;40.108;18.302;2024-01-15T07:28:59;11.80;99.90
35563;DHT22;21665;40.108;18.302;2024-01-15T07:31:27;11.90;99.90
35563;DHT22;21665;40.108;18.302;2024-01-15T07:33:54;12.00;99.90
35563;DHT22;21665;40.108;18.302;2024-01-15T07:36:21;12.10;99.90
35563;DHT22;21665;40.108;18.302;2024-01-15T07:38:48;12.20;99.90
35563;DHT22;21665;40.108;18.302;2024-01-15T07:41:14;12.40;99.90
35563;DHT22;21665;40.108;18.302;2024-01-15T07:43:41;12.40;99.90
35563;DHT22;21665;40.108;18.302;2024-01-15T07:46:07;12.50;99.90
35563;DHT22;21665;40.108;18.302;2024-01-15T07:48:34;12.50;99.90
35563;DHT22;21665;40.108;18.302;2024-01-15T07:51:00;12.60;99.90
35563;DHT22;21665;40.108;18.302;2024-01-15T07:53:27;12.60;99.90
35563;DHT22;21665;40.108;18.302;2024-01-15T07:55:54;12.70;99.90
35563;DHT22;21665;40.108;18.302;2024-01-15T07:58:20;12.70;99.90
35563;DHT22;21665;40.108;18.302;2024-01-15T08:00:47;12.80;99.90
35563;DHT22;21665;40.108;18.302;2024-01-15T08:03:13;12.80;99.90
35563;DHT22;21665;40.108;18.302;2024-01-15T08:05:41;12.80;99.90
35563;DHT22;21665;40.108;18.302;2024-01-15T08:08:08;12.80;99.90
35563;DHT22;21665;40.108;18.302;2024-01-15T08:10:34;12.90;99.90
35563;DHT22;21665;40.108;18.302;2024-01-15T08:13:00;12.90;99.90
35563;DHT22;21665;40.108;18.302;2024-01-15T08:15:26;12.90;99.90
35563;DHT22;21665;40.108;18.302;2024-01-15T08:17:53;12.90;99.90
35563;DHT22;21665;40.108;18.302;2024-01-15T08:20:23;13.00;99.90
35563;DHT22;21665;40.108;18.302;2024-01-15T08:22:49;12.90;99.90
35563;DHT22;21665;40.108;18.302;2024-01-15T08:25:16;12.90;99.90
35563;DHT22;21665;40.108;18.302;2024-01-15T08:27:45;12.90;99.90
35563;DHT22;21665;40.108;18.302;2024-01-15T08:30:16;13.00;99.90
35563;DHT22;21665;40.108;18.302;2024-01-15T08:32:45;13.00;99.90
35563;DHT22;21665;40.108;18.302;2024-01-15T08:35:14;13.00;99.90
35563;DHT22;21665;40.108;18.302;2024-01-15T08:37:40;13.10;99.90
35563;DHT22;21665;40.108;18.302;2024-01-15T08:40:07;13.20;99.90
35563;DHT22;21665;40.108;18.302;2024-01-15T08:42:35;13.30;99.90
35563;DHT22;21665;40.108;18.302;2024-01-15T08:45:01;13.30;99.90
35563;DHT22;21665;40.108;18.302;2024-01-15T08:47:31;13.40;99.90
35563;DHT22;21665;40.108;18.302;2024-01-15T08:50:01;13.50;99.90
35563;DHT22;21665;40.108;18.302;2024-01-15T08:52:28;13.50;99.90
35563;DHT22;21665;40.108;18.302;2024-01-15T08:54:56;13.60;99.90
35563;DHT22;21665;40.108;18.302;2024-01-15T08:57:23;13.70;99.90
35563;DHT22;21665;40.108;18.302;2024-01-15T08:59:49;13.80;99.90
35563;DHT22;21665;40.108;18.302;2024-01-15T09:02:21;13.80;99.90
35563;DHT22;21665;40.108;18.302;2024-01-15T09:04:52;14.00;99.90
35563;DHT22;21665;40.108;18.302;2024-01-15T09:07:19;14.20;99.90
35563;DHT22;21665;40.108;18.302;2024-01-15T09:09:46;14.30;99.90
35563;DHT22;21665;40.108;18.302;2024-01-15T09:12:12;14.50;99.90
35563;DHT22;21665;40.108;18.302;2024-01-15T09:14:44;14.60;99.90
35563;DHT22;21665;40.108;18.302;2024-01-15T09:17:11;14.60;99.90
35563;DHT22;21665;40.108;18.302;2024-01-15T09:19:38;14.70;99.90
35563;DHT22;21665;40.108;18.302;2024-01-15T09:22:06;14.60;99.90
35563;DHT22;21665;40.108;18.302;2024-01-15T09:24:33;14.70;99.90
35563;DHT22;21665;40.108;18.302;2024-01-15T09:27:02;14.70;99.90
35563;DHT22;21665;40.108;18.302;2024-01-15T09:29:28;14.60;99.90
35563;DHT22;21665;40.108;18.302;2024-01-15T09:31:55;14.60;99.90
35563;DHT22;21665;40.108;18.302;2024-01-15T09:34:25;14.50;99.90
35563;DHT22;21665;40.108;18.302;2024-01-15T09:36:51;14.40;99.90
35563;DHT22;21665;40.108;18.302;2024-01-15T09:39:18;14.40;99.90
35563;DHT22;21665;40.108;18.302;2024-01-15T09:41:45;14.40;99.90
35563;DHT22;21665;40.108;18.302;2024-01-15T09:44:12;14.30;99.90
35563;DHT22;21665;40.108;18.302;2024-01-15T09:46:42;14.40;99.90
35563;DHT22;21665;40.108;18.302;2024-01-15T09:49:12;14.40;99.90
35563;DHT22;21665;40.108;18.302;2024-01-15T09:51:39;14.50;99.90
35563;DHT22;21665;40.108;18.302;2024-01-15T09:54:09;14.50;99.90
35563;DHT22;21665;40.108;18.302;2024-01-15T09:56:36;14.60;99.90
35563;DHT22;21665;40.108;18.302;2024-01-15T09:59:02;14.70;99.90
35563;DHT22;21665;40.108;18.302;2024-01-15T10:01:32;14.70;99.90
35563;DHT22;21665;40.108;18.302;2024-01-15T10:04:05;14.90;99.90
35563;DHT22;21665;40.108;18.302;2024-01-15T10:06:45;15.10;99.90
35563;DHT22;21665;40.108;18.302;2024-01-15T10:09:14;15.30;99.90
35563;DHT22;21665;40.108;18.302;2024-01-15T10:11:43;15.30;99.90
35563;DHT22;21665;40.108;18.302;2024-01-15T10:14:10;15.20;99.90
35563;DHT22;21665;40.108;18.302;2024-01-15T10:16:40;15.20;99.90
35563;DHT22;21665;40.108;18.302;2024-01-15T10:19:07;15.30;99.90
35563;DHT22;21665;40.108;18.302;2024-01-15T10:21:34;15.30;99.90
35563;DHT22;21665;40.108;18.302;2024-01-15T10:24:02;15.30;99.90
35563;DHT22;21665;40.108;18.302;2024-01-15T10:26:32;15.20;99.90
35563;DHT22;21665;40.108;18.302;2024-01-15T10:29:01;15.30;99.90
35563;DHT22;21665;40.108;18.302;2024-01-15T10:31:28;15.30;99.90
35563;DHT22;21665;40.108;18.302;2024-01-15T10:34:10;15.20;99.90
35563;DHT22;21665;40.108;18.302;2024-01-15T10:36:46;15.30;99.90
35563;DHT22;21665;40.108;18.302;2024-01-15T10:39:15;15.30;99.90
35563;DHT22;21665;40.108;18.302;2024-01-15T10:41:45;15.30;99.90
35563;DHT22;21665;40.108;18.302;2024-01-15T10:44:12;15.40;99.90
35563;DHT22;21665;40.108;18.302;2024-01-15T10:46:48;15.50;99.90
35563;DHT22;21665;40.108;18.302;2024-01-15T10:49:15;15.50;99.90
35563;DHT22;21665;40.108;18.302;2024-01-15T10:51:42;15.60;99.90
35563;DHT22;21665;40.108;18.302;2024-01-15T10:54:14;15.50;99.90
35563;DHT22;21665;40.108;18.302;2024-01-15T10:56:42;15.60;99.90
35563;DHT22;21665;40.108;18.302;2024-01-15T10:59:10;15.50;99.90
35563;DHT22;21665;40.108;18.302;2024-01-15T11:01:37;15.80;99.90
35563;DHT22;21665;40.108;18.302;2024-01-15T11:04:04;15.80;99.90
35563;DHT22;21665;40.108;18.302;2024-01-15T11:06:42;15.80;99.90
35563;DHT22;21665;40.108;18.302;2024-01-15T11:09:09;16.00;99.90
35563;DHT22;21665;40.108;18.302;2024-01-15T11:11:38;16.00;99.90
35563;DHT22;21665;40.108;18.302;2024-01-15T11:14:06;16.10;99.90
35563;DHT22;21665;40.108;18.302;2024-01-15T11:16:59;16.30;99.90
35563;DHT22;21665;40.108;18.302;2024-01-15T11:19:45;16.30;99.90
35563;DHT22;21665;40.108;18.302;2024-01-15T11:25:05;15.70;99.90
35563;DHT22;21665;40.108;18.302;2024-01-15T11:27:44;15.70;99.90
35563;DHT22;21665;40.108;18.302;2024-01-15T11:30:13;15.70;99.90
35563;DHT22;21665;40.108;18.302;2024-01-15T11:32:40;15.80;99.90
35563;DHT22;21665;40.108;18.302;2024-01-15T11:35:17;16.00;99.90
35563;DHT22;21665;40.108;18.302;2024-01-15T11:40:20;16.00;99.90
35563;DHT22;21665;40.108;18.302;2024-01-15T11:42:47;16.00;99.90
35563;DHT22;21665;40.108;18.302;2024-01-15T11:45:20;16.00;99.90
35563;DHT22;21665;40.108;18.302;2024-01-15T11:48:07;16.00;99.90
35563;DHT22;21665;40.108;18.302;2024-01-15T11:50:39;16.10;99.90
35563;DHT22;21665;40.108;18.302;2024-01-15T11:53:26;16.30;99.90
35563;DHT22;21665;40.108;18.302;2024-01-15T11:55:58;16.30;99.90
35563;DHT22;21665;40.108;18.302;2024-01-15T11:58:26;16.30;99.90
35563;DHT22;21665;40.108;18.302;2024-01-15T12:00:52;16.50;99.90
35563;DHT22;21665;40.108;18.302;2024-01-15T12:03:24;16.60;99.90
35563;DHT22;21665;40.108;18.302;2024-01-15T12:05:53;16.60;99.90
35563;DHT22;21665;40.108;18.302;2024-01-15T12:08:24;16.50;99.90
35563;DHT22;21665;40.108;18.302;2024-01-15T12:10:54;16.30;99.90
35563;DHT22;21665;40.108;18.302;2024-01-15T12:13:20;16.00;99.90
35563;DHT22;21665;40.108;18.302;2024-01-15T12:15:48;15.80;99.90
35563;DHT22;21665;40.108;18.302;2024-01-15T12:18:18;15.90;99.90
35563;DHT22;21665;40.108;18.302;2024-01-15T12:20:46;15.80;99.90
35563;DHT22;21665;40.108;18.302;2024-01-15T12:23:15;15.90;99.90
35563;DHT22;21665;40.108;18.302;2024-01-15T12:25:43;15.80;99.90
35563;DHT22;21665;40.108;18.302;2024-01-15T12:28:10;15.60;99.90
35563;DHT22;21665;40.108;18.302;2024-01-15T12:30:36;15.70;99.90
35563;DHT22;21665;40.108;18.302;2024-01-15T12:33:04;15.70;99.90
35563;DHT22;21665;40.108;18.302;2024-01-15T12:35:33;15.60;99.90
35563;DHT22;21665;40.108;18.302;2024-01-15T12:38:03;15.60;99.90
35563;DHT22;21665;40.108;18.302;2024-01-15T12:40:31;15.40;99.90
35563;DHT22;21665;40.108;18.302;2024-01-15T12:42:58;15.30;99.90
35563;DHT22;21665;40.108;18.302;2024-01-15T12:45:24;15.30;99.90
35563;DHT22;21665;40.108;18.302;2024-01-15T12:47:51;15.10;99.90
35563;DHT22;21665;40.108;18.302;2024-01-15T12:50:17;14.90;99.90
35563;DHT22;21665;40.108;18.302;2024-01-15T12:52:44;14.80;99.90
35563;DHT22;21665;40.108;18.302;2024-01-15T12:55:13;14.70;99.90
35563;DHT22;21665;40.108;18.302;2024-01-15T12:57:40;14.60;99.90
35563;DHT22;21665;40.108;18.302;2024-01-15T13:00:07;14.40;99.90
35563;DHT22;21665;40.108;18.302;2024-01-15T13:02:41;14.40;99.90
35563;DHT22;21665;40.108;18.302;2024-01-15T13:05:11;14.20;99.90
35563;DHT22;21665;40.108;18.302;2024-01-15T13:07:38;14.10;99.90
35563;DHT22;21665;40.108;18.302;2024-01-15T13:10:05;14.00;99.90
35563;DHT22;21665;40.108;18.302;2024-01-15T13:12:33;13.90;99.90
35563;DHT22;21665;40.108;18.302;2024-01-15T13:14:59;13.80;99.90
35563;DHT22;21665;40.108;18.302;2024-01-15T13:17:26;13.80;99.90
35563;DHT22;21665;40.108;18.302;2024-01-15T13:19:52;13.70;99.90
35563;DHT22;21665;40.108;18.302;2024-01-15T13:22:22;13.80;99.90
35563;DHT22;21665;40.108;18.302;2024-01-15T13:24:48;13.80;99.90
35563;DHT22;21665;40.108;18.302;2024-01-15T13:27:15;13.80;99.90
35563;DHT22;21665;40.108;18.302;2024-01-15T13:29:41;13.90;99.90
35563;DHT22;21665;40.108;18.302;2024-01-15T13:32:07;13.90;99.90
35563;DHT22;21665;40.108;18.302;2024-01-15T13:34:33;13.80;99.90
35563;DHT22;21665;40.108;18.302;2024-01-15T13:37:04;13.80;99.90
35563;DHT22;21665;40.108;18.302;2024-01-15T13:39:30;13.70;99.90
35563;DHT22;21665;40.108;18.302;2024-01-15T13:41:59;13.70;99.90
35563;DHT22;21665;40.108;18.302;2024-01-15T13:44:26;13.70;99.90
35563;DHT22;21665;40.108;18.302;2024-01-15T13:46:53;13.60;99.90
35563;DHT22;21665;40.108;18.302;2024-01-15T13:49:23;13.60;99.90
35563;DHT22;21665;40.108;18.302;2024-01-15T13:51:50;13.60;99.90
35563;DHT22;21665;40.108;18.302;2024-01-15T13:54:16;13.50;99.90
35563;DHT22;21665;40.108;18.302;2024-01-15T13:56:45;13.50;99.90
35563;DHT22;21665;40.108;18.302;2024-01-15T13:59:15;13.50;99.90
35563;DHT22;21665;40.108;18.302;2024-01-15T14:01:42;13.50;99.90
35563;DHT22;21665;40.108;18.302;2024-01-15T14:04:09;13.40;99.90
35563;DHT22;21665;40.108;18.302;2024-01-15T14:06:35;13.40;99.90
35563;DHT22;21665;40.108;18.302;2024-01-15T14:09:01;13.40;99.90
35563;DHT22;21665;40.108;18.302;2024-01-15T14:11:30;13.40;99.90
35563;DHT22;21665;40.108;18.302;2024-01-15T14:13:56;13.40;99.90
35563;DHT22;21665;40.108;18.302;2024-01-15T14:16:23;13.40;99.90
35563;DHT22;21665;40.108;18.302;2024-01-15T14:18:49;13.40;99.90
35563;DHT22;21665;40.108;18.302;2024-01-15T14:21:15;13.30;99.90
35563;DHT22;21665;40.108;18.302;2024-01-15T14:23:42;13.30;99.90
35563;DHT22;21665;40.108;18.302;2024-01-15T14:26:08;13.30;99.90
35563;DHT22;21665;40.108;18.302;2024-01-15T14:28:34;13.20;99.90
35563;DHT22;21665;40.108;18.302;2024-01-15T14:31:00;13.30;99.90
35563;DHT22;21665;40.108;18.302;2024-01-15T14:33:26;13.30;99.90
35563;DHT22;21665;40.108;18.302;2024-01-15T14:35:53;13.20;99.90
35563;DHT22;21665;40.108;18.302;2024-01-15T14:38:19;13.20;99.90
35563;DHT22;21665;40.108;18.302;2024-01-15T14:40:46;13.20;99.90
35563;DHT22;21665;40.108;18.302;2024-01-15T14:43:12;13.30;99.90
35563;DHT22;21665;40.108;18.302;2024-01-15T14:45:38;13.30;99.90
35563;DHT22;21665;40.108;18.302;2024-01-15T14:48:05;13.30;99.90
35563;DHT22;21665;40.108;18.302;2024-01-15T14:50:31;13.20;99.90
35563;DHT22;21665;40.108;18.302;2024-01-15T14:52:57;13.20;99.90
35563;DHT22;21665;40.108;18.302;2024-01-15T14:55:24;13.20;99.90
35563;DHT22;21665;40.108;18.302;2024-01-15T14:57:51;13.20;99.90
35563;DHT22;21665;40.108;18.302;2024-01-15T15:00:18;13.20;99.90
35563;DHT22;21665;40.108;18.302;2024-01-15T15:02:45;13.20;99.90
35563;DHT22;21665;40.108;18.302;2024-01-15T15:05:11;13.10;99.90
35563;DHT22;21665;40.108;18.302;2024-01-15T15:07:39;13.20;99.90
35563;DHT22;21665;40.108;18.302;2024-01-15T15:10:06;13.10;99.90
35563;DHT22;21665;40.108;18.302;2024-01-15T15:12:32;13.10;99.90
35563;DHT22;21665;40.108;18.302;2024-01-15T15:14:59;13.10;99.90
35563;DHT22;21665;40.108;18.302;2024-01-15T15:17:26;13.10;99.90
35563;DHT22;21665;40.108;18.302;2024-01-15T15:19:52;13.00;99.90
35563;DHT22;21665;40.108;18.302;2024-01-15T15:22:21;13.00;99.90
35563;DHT22;21665;40.108;18.302;2024-01-15T15:24:47;13.00;99.90